Time;durP1;ratioP1;P1;durP2;ratioP2;P2;SDS_P1;SDS_P2;PMS_P1;PMS_P2;Temp;Humidity;BMP_temperature;BMP_pressure;BME280_temperature;BME280_humidity;BME280_pressure;Samples;Min_cycle;Max_cycle;Signal;HPM_P1;HPM_P2
2022/04/26 03:38:05;;;;;;;3.92;1.98;;;;;;;15.90;82.96;99850.59;5006259;28;20283;-77
2022/04/26 03:40:31;;;;;;;4.35;2.10;;;;;;;15.67;85.04;99822.06;5033588;28;20199;-76
2022/04/26 03:42:59;;;;;;;3.58;1.80;;;;;;;15.97;85.73;99853.13;5034138;28;20196;-75
2022/04/26 03:45:26;;;;;;;5.75;2.10;;;;;;;16.06;85.50;99862.59;5014675;28;20321;-75
2022/04/26 03:47:52;;;;;;;5.43;2.40;;;;;;;16.40;83.22;99863.97;5010356;28;20193;-74
2022/04/26 03:50:21;;;;;;;3.40;2.30;;;;;;;16.99;82.18;99871.06;5054991;28;20209;-76
2022/04/26 03:52:52;;;;;;;8.45;2.30;;;;;;;17.53;77.04;99876.34;5086867;28;20248;-75
2022/04/26 03:55:20;;;;;;;1.63;1.52;;;;;;;18.06;77.02;99883.31;5086931;28;20194;-76
2022/04/26 03:57:47;;;;;;;2.20;2.00;;;;;;;18.73;70.83;99875.84;5088997;28;20193;-75
2022/04/26 04:00:14;;;;;;;7.75;2.10;;;;;;;19.28;66.70;99843.06;5093512;28;20198;-76
2022/04/26 04:02:41;;;;;;;5.47;2.70;;;;;;;19.89;62.77;99886.28;5091111;28;20198;-76
2022/04/26 04:05:09;;;;;;;3.78;2.60;;;;;;;20.24;62.74;99892.34;5090616;28;20218;-75
2022/04/26 04:07:37;;;;;;;4.63;2.20;;;;;;;20.84;60.21;99899.44;5121759;27;20195;-75
2022/04/26 04:10:04;;;;;;;3.25;2.20;;;;;;;21.35;58.67;99880.31;5134701;27;20332;-76
2022/04/26 04:12:31;;;;;;;5.53;1.88;;;;;;;21.37;54.52;99860.03;5134436;27;20196;-76
2022/04/26 04:14:58;;;;;;;3.92;2.10;;;;;;;21.93;54.21;99903.91;5134480;27;20268;-75
2022/04/26 04:17:24;;;;;;;3.80;2.10;;;;;;;21.19;54.75;99901.00;5134273;27;20201;-75
2022/04/26 04:19:51;;;;;;;4.53;1.90;;;;;;;20.81;54.96;99888.97;5134939;27;20261;-76
2022/04/26 04:22:18;;;;;;;8.30;2.60;;;;;;;20.34;57.27;99905.25;5134326;27;20249;-77
2022/04/26 04:24:46;;;;;;;2.10;1.77;;;;;;;20.27;57.75;99912.44;5134021;27;20684;-77
2022/04/26 04:27:13;;;;;;;6.13;1.73;;;;;;;19.70;59.42;99905.16;5133254;27;20196;-76
2022/04/26 04:29:40;;;;;;;2.58;2.15;;;;;;;19.19;62.34;99907.22;5133249;27;20213;-77
2022/04/26 04:32:07;;;;;;;5.88;4.18;;;;;;;18.86;72.08;99905.38;5094167;28;20194;-73
2022/04/26 04:34:34;;;;;;;3.40;2.15;;;;;;;18.55;69.71;99907.75;5094710;27;20709;-78
2022/04/26 04:37:00;;;;;;;7.70;1.85;;;;;;;19.03;67.29;99916.38;5097348;27;20285;-77
2022/04/26 04:39:27;;;;;;;3.20;2.03;;;;;;;19.59;64.27;99911.56;5133616;27;20201;-77
2022/04/26 04:41:55;;;;;;;4.22;2.00;;;;;;;20.67;60.24;99922.78;5097770;27;20265;-77
2022/04/26 04:44:23;;;;;;;2.35;1.83;;;;;;;20.54;57.02;99898.56;5133977;27;20199;-76
2022/04/26 04:46:50;;;;;;;1.63;1.52;;;;;;;20.78;56.50;99887.31;5133984;27;20217;-75
2022/04/26 04:49:16;;;;;;;2.72;1.50;;;;;;;21.43;54.46;99888.84;5133946;27;20292;-77
2022/04/26 04:51:43;;;;;;;4.78;1.55;;;;;;;21.54;53.25;99913.13;5133436;27;20284;-76
2022/04/26 04:54:10;;;;;;;1.65;1.55;;;;;;;21.53;53.61;99911.38;5133747;27;20204;-76
2022/04/26 04:56:37;;;;;;;3.20;1.80;;;;;;;21.71;52.72;99918.69;5130597;27;20680;-77
2022/04/26 04:59:07;;;;;;;3.90;1.80;;;;;;;22.26;51.93;99922.16;5129269;27;20189;-77
2022/04/26 05:01:33;;;;;;;1.77;1.67;;;;;;;22.80;50.60;99924.56;5111052;27;20212;-79
2022/04/26 05:04:00;;;;;;;5.18;1.85;;;;;;;23.03;49.21;99919.28;5130727;27;20691;-77
2022/04/26 05:06:27;;;;;;;5.40;1.50;;;;;;;22.78;50.06;99929.94;5113824;27;20225;-77
2022/04/26 05:08:54;;;;;;;11.20;6.03;;;;;;;22.70;53.07;99935.50;5134008;27;20205;-74
2022/04/26 05:11:20;;;;;;;2.78;1.90;;;;;;;22.54;50.54;99909.66;5132245;27;20204;-74
2022/04/26 05:13:47;;;;;;;4.95;2.28;;;;;;;22.41;50.22;99916.28;5115944;27;20209;-77
2022/04/26 05:16:15;;;;;;;5.28;1.65;;;;;;;22.59;48.82;99934.13;5133204;27;20205;-75
2022/04/26 05:18:42;;;;;;;4.43;1.77;;;;;;;22.36;49.43;99940.25;5133247;27;20567;-77
2022/04/26 05:21:09;;;;;;;2.28;1.90;;;;;;;21.69;51.36;99939.84;5133455;27;20257;-76
2022/04/26 05:26:20;;;;;;;3.13;1.70;;;;;;;21.22;53.63;99932.59;5113465;27;20239;-78
2022/04/26 05:28:47;;;;;;;5.88;1.95;;;;;;;20.83;54.50;99891.59;5112132;27;20189;-76
2022/04/26 05:31:16;;;;;;;5.63;1.80;;;;;;;20.52;55.46;99926.69;5132404;27;20204;-77
2022/04/26 05:33:43;;;;;;;4.18;2.00;;;;;;;20.14;57.26;99948.78;5132358;27;20197;-75
2022/04/26 05:36:09;;;;;;;3.75;2.05;;;;;;;19.83;58.25;99942.56;5132378;27;20208;-77
2022/04/26 05:38:36;;;;;;;2.00;1.90;;;;;;;19.88;59.58;99943.31;5132422;27;20571;-77
2022/04/26 05:41:03;;;;;;;5.72;2.22;;;;;;;19.80;62.32;99947.88;5132412;27;20208;-76
2022/04/26 05:43:32;;;;;;;6.35;2.00;;;;;;;19.59;61.43;99953.66;5128902;27;20652;-75
2022/04/26 05:45:59;;;;;;;3.08;2.10;;;;;;;19.62;62.84;99948.34;5132749;27;20233;-75
2022/04/26 05:48:27;;;;;;;5.97;1.98;;;;;;;19.14;60.76;99945.91;5132829;27;20664;-75
2022/04/26 05:50:55;;;;;;;8.80;2.75;;;;;;;19.21;61.61;99952.75;5132859;27;20242;-75
2022/04/26 05:53:22;;;;;;;6.75;2.03;;;;;;;19.36;61.46;99958.56;5127456;27;20205;-75
2022/04/26 05:55:49;;;;;;;3.92;2.17;;;;;;;18.90;64.28;99964.84;5092354;28;20212;-75
2022/04/26 05:58:15;;;;;;;4.03;2.40;;;;;;;19.00;62.79;99944.47;5111867;28;20201;-76
2022/04/26 06:00:42;;;;;;;2.00;1.80;;;;;;;18.87;63.67;99967.50;5112200;28;20216;-76
2022/04/26 06:03:09;;;;;;;3.08;2.00;;;;;;;18.75;64.05;99957.25;5109416;28;20190;-76
2022/04/26 06:05:37;;;;;;;1.60;1.50;;;;;;;18.38;64.94;99961.44;5112118;28;20217;-75
2022/04/26 06:08:05;;;;;;;1.63;1.50;;;;;;;18.69;66.09;99963.47;5111896;28;20632;-76
2022/04/26 06:10:32;;;;;;;3.97;1.80;;;;;;;18.85;67.36;99945.66;5111855;28;20197;-76
2022/04/26 06:12:59;;;;;;;1.77;1.20;;;;;;;18.83;65.71;99956.19;5111740;28;20254;-74
2022/04/26 06:15:26;;;;;;;4.00;1.75;;;;;;;18.89;66.44;99965.72;5111802;28;20308;-76
2022/04/26 06:17:52;;;;;;;2.67;2.05;;;;;;;19.20;65.53;99971.19;5114782;27;20201;-76
2022/04/26 06:20:22;;;;;;;2.08;1.73;;;;;;;19.39;65.66;99976.91;5132051;27;20196;-76
2022/04/26 06:22:51;;;;;;;3.10;2.35;;;;;;;19.47;62.94;99980.28;5132295;27;20189;-73
2022/04/26 06:25:17;;;;;;;1.60;1.60;;;;;;;19.71;62.41;99971.81;5128271;27;20534;-76
2022/04/26 06:27:44;;;;;;;1.73;1.63;;;;;;;19.92;62.00;99973.03;5132034;27;20608;-75
2022/04/26 06:30:12;;;;;;;4.45;2.08;;;;;;;19.99;60.72;99964.97;5112748;27;20208;-76
2022/04/26 06:32:42;;;;;;;1.73;1.63;;;;;;;20.23;60.45;99980.13;5131940;27;20197;-78
2022/04/26 06:35:09;;;;;;;2.05;1.73;;;;;;;20.33;61.86;99977.31;5131812;27;20570;-78
2022/04/26 06:37:36;;;;;;;7.88;1.50;;;;;;;20.36;60.42;99974.59;5132077;27;20199;-78
2022/04/26 06:40:05;;;;;;;2.00;1.90;;;;;;;20.62;60.15;99985.25;5131987;27;20193;-77
2022/04/26 06:42:32;;;;;;;3.97;1.83;;;;;;;20.85;59.38;99980.22;5131822;27;20668;-78
2022/04/26 06:44:59;;;;;;;1.80;1.70;;;;;;;21.20;58.69;99977.47;5131815;27;20205;-78
2022/04/26 06:47:26;;;;;;;4.38;1.95;;;;;;;21.15;58.08;99987.25;5112291;27;20625;-77
2022/04/26 06:49:53;;;;;;;4.00;1.65;;;;;;;21.03;58.04;99982.34;5131769;27;20193;-76
2022/04/26 06:52:19;;;;;;;3.63;1.40;;;;;;;20.62;59.73;99987.91;5120056;27;20202;-77
2022/04/26 06:54:46;;;;;;;2.00;1.77;;;;;;;20.40;62.00;99982.38;5110521;28;20646;-77
2022/04/26 06:57:15;;;;;;;2.45;1.60;;;;;;;20.31;61.45;99973.81;5120383;27;20292;-77
2022/04/26 06:59:42;;;;;;;5.53;1.75;;;;;;;20.45;61.43;99983.09;5131031;27;20209;-77
2022/04/26 07:02:09;;;;;;;1.83;1.75;;;;;;;20.45;60.55;99969.06;5115960;27;20202;-77
2022/04/26 07:04:36;;;;;;;2.67;1.73;;;;;;;20.49;61.05;99982.09;5110617;27;20190;-78
2022/04/26 07:07:03;;;;;;;1.80;1.70;;;;;;;20.55;60.53;99975.78;5113284;27;20798;-77
2022/04/26 07:09:29;;;;;;;2.83;1.83;;;;;;;20.53;61.32;99977.63;5122368;27;20682;-78
2022/04/26 07:11:57;;;;;;;1.83;1.73;;;;;;;20.61;60.64;99978.28;5122504;27;20257;-78
2022/04/26 07:14:25;;;;;;;2.80;1.80;;;;;;;20.65;60.94;99977.31;5122326;27;20198;-76
2022/04/26 07:16:51;;;;;;;6.88;2.03;;;;;;;20.75;60.79;99984.03;5126545;27;20821;-77
2022/04/26 07:19:18;;;;;;;2.83;1.70;;;;;;;21.18;59.33;99984.56;5110450;28;20718;-75
2022/04/26 07:21:47;;;;;;;6.25;1.80;;;;;;;21.31;58.89;99982.41;5110506;28;20201;-77
2022/04/26 07:24:14;;;;;;;3.17;1.77;;;;;;;21.49;58.93;99989.75;5110233;28;20205;-75
2022/04/26 07:26:42;;;;;;;5.03;1.80;;;;;;;22.09;58.18;99986.09;5127501;27;20225;-77
2022/04/26 07:29:09;;;;;;;3.85;1.70;;;;;;;22.09;56.12;99972.88;5111072;27;20547;-76
2022/04/26 07:31:38;;;;;;;1.95;1.45;;;;;;;22.01;55.51;99983.69;5130093;27;20252;-77
2022/04/26 07:34:22;;;;;;;1.73;1.63;;;;;;;22.28;55.34;99992.50;5130194;27;20265;-77
2022/04/26 07:36:49;;;;;;;6.45;1.85;;;;;;;22.55;54.20;99996.81;5130930;27;20700;-74
2022/04/26 07:39:17;;;;;;;5.10;1.80;;;;;;;22.42;54.92;99978.81;5130770;27;20297;-76
2022/04/26 07:41:45;;;;;;;2.20;1.50;;;;;;;22.49;52.18;100002.31;5130561;28;20656;-76
2022/04/26 07:44:12;;;;;;;5.97;1.67;;;;;;;22.47;52.14;100003.28;5130479;28;20621;-76
2022/04/26 07:46:41;;;;;;;1.55;1.38;;;;;;;22.62;50.45;99987.75;5127828;28;20228;-77
2022/04/26 07:49:08;;;;;;;2.28;1.45;;;;;;;22.79;48.69;99984.56;5130340;28;20615;-75
2022/04/26 07:51:35;;;;;;;2.63;1.20;;;;;;;22.52;49.17;99994.28;5130302;28;20197;-76
2022/04/26 07:54:02;;;;;;;1.38;1.27;;;;;;;22.62;47.81;100000.09;5130304;28;20236;-76
2022/04/26 07:56:29;;;;;;;1.63;1.52;;;;;;;22.59;49.07;99987.84;5110867;28;20193;-76
2022/04/26 07:58:58;;;;;;;2.83;1.67;;;;;;;22.95;48.73;100012.16;5130415;27;20203;-76
2022/04/26 08:01:25;;;;;;;2.83;1.70;;;;;;;22.94;48.17;100010.41;5129896;28;20287;-76
2022/04/26 08:03:53;;;;;;;2.58;1.88;;;;;;;22.16;52.41;99991.13;5129988;28;20197;-76
2022/04/26 08:06:20;;;;;;;5.10;1.83;;;;;;;22.04;54.71;100010.03;5129779;28;20220;-76
2022/04/26 08:08:47;;;;;;;1.55;1.40;;;;;;;22.10;51.40;99988.69;5130057;28;20202;-76
2022/04/26 08:11:14;;;;;;;1.60;1.50;;;;;;;22.13;50.96;100009.72;5129868;28;20286;-74
2022/04/26 08:13:41;;;;;;;2.78;1.90;;;;;;;21.89;51.81;100010.50;5129854;28;20666;-76
2022/04/26 08:16:08;;;;;;;1.55;1.23;;;;;;;21.63;49.53;99992.84;5129889;28;20200;-76
2022/04/26 08:18:35;;;;;;;3.88;1.73;;;;;;;21.75;49.57;100004.78;5130118;28;20621;-77
2022/04/26 08:21:06;;;;;;;2.00;1.35;;;;;;;21.91;48.78;100019.25;5129839;28;20200;-77
2022/04/26 08:23:34;;;;;;;1.30;1.30;;;;;;;22.23;47.92;100011.13;5129822;28;20196;-77
2022/04/26 08:28:46;;;;;;;1.95;1.85;;;;;;;21.99;50.63;100001.38;5129864;28;20199;-76
2022/04/26 08:31:12;;;;;;;2.50;2.22;;;;;;;21.96;51.20;100017.34;5130008;27;20192;-77
2022/04/26 08:33:39;;;;;;;3.70;1.67;;;;;;;21.96;51.88;100012.06;5129566;27;20201;-77
2022/04/26 08:36:08;;;;;;;3.05;2.08;;;;;;;21.88;53.48;100014.03;5129785;27;20221;-77
2022/04/26 08:38:35;;;;;;;8.75;1.95;;;;;;;21.91;53.88;100013.97;5129715;28;20720;-76
2022/04/26 08:41:02;;;;;;;2.75;1.98;;;;;;;21.67;54.99;99978.63;5129726;27;20269;-76
2022/04/26 08:43:33;;;;;;;5.22;2.13;;;;;;;22.03;55.17;100010.94;5129742;27;20204;-76
2022/04/26 08:46:02;;;;;;;8.60;1.85;;;;;;;22.17;54.45;100011.34;5131165;27;20197;-77
2022/04/26 08:51:15;;;;;;;3.50;2.00;;;;;;;21.92;54.78;100015.69;5133389;27;20803;-77
2022/04/26 08:53:44;;;;;;;4.75;2.15;;;;;;;21.70;53.77;100009.34;5133105;27;20197;-77
2022/04/26 08:56:11;;;;;;;3.80;2.30;;;;;;;21.52;55.56;99999.34;5133172;27;20615;-77
2022/04/26 08:58:39;;;;;;;2.25;1.70;;;;;;;21.53;54.03;100001.97;5133209;27;20196;-77
2022/04/26 09:01:09;;;;;;;5.75;2.85;;;;;;;21.74;53.90;100006.56;5133360;27;20197;-76
2022/04/26 09:03:38;;;;;;;2.47;2.05;;;;;;;21.66;53.50;99983.94;5123031;27;20205;-76
2022/04/26 09:06:07;;;;;;;5.88;2.28;;;;;;;21.97;53.75;99992.66;5112252;28;20193;-77
2022/04/26 09:08:36;;;;;;;2.85;2.63;;;;;;;21.90;52.88;99999.06;5132895;27;20208;-77
2022/04/26 09:11:04;;;;;;;2.00;1.90;;;;;;;22.01;51.97;99994.25;5132969;27;20196;-77
2022/04/26 09:13:40;;;;;;;4.18;2.08;;;;;;;21.95;51.05;100005.03;5132768;27;20193;-78
2022/04/26 09:16:17;;;;;;;1.75;1.40;;;;;;;21.60;50.31;100003.50;5096115;27;20288;-76
2022/04/26 09:18:52;;;;;;;2.28;2.08;;;;;;;21.98;51.58;100002.28;5132599;27;20200;-77
2022/04/26 09:21:19;;;;;;;1.60;1.50;;;;;;;22.13;50.15;99999.16;5132930;27;20220;-77
2022/04/26 09:23:48;;;;;;;2.63;1.77;;;;;;;22.24;46.76;99997.00;5096182;27;20265;-77
2022/04/26 09:26:16;;;;;;;1.55;1.38;;;;;;;22.11;46.44;100005.41;5132515;27;20307;-77
2022/04/26 09:28:44;;;;;;;2.65;1.50;;;;;;;22.03;45.83;99981.88;5132399;27;20259;-77
2022/04/26 09:31:19;;;;;;;2.28;1.65;;;;;;;22.35;46.02;100001.94;5132600;27;20205;-77
2022/04/26 09:33:49;;;;;;;1.33;1.13;;;;;;;22.23;45.14;99976.78;5132423;27;20638;-78
2022/04/26 09:36:18;;;;;;;1.30;1.20;;;;;;;22.41;43.30;100006.13;5132933;27;20716;-77
2022/04/26 09:38:52;;;;;;;1.25;1.17;;;;;;;22.48;44.09;99994.44;5112861;27;20276;-78
2022/04/26 09:41:19;;;;;;;2.78;1.17;;;;;;;22.14;43.70;99979.75;5132459;27;20590;-78
2022/04/26 09:43:56;;;;;;;3.85;1.30;;;;;;;22.26;43.03;99996.09;5132421;27;20856;-78
2022/04/26 09:46:23;;;;;;;1.40;1.30;;;;;;;22.06;43.22;99965.94;5132244;27;20277;-78
2022/04/26 09:48:53;;;;;;;2.05;1.20;;;;;;;22.54;43.52;100002.16;5095792;27;20196;-76
2022/04/26 09:51:20;;;;;;;3.08;1.20;;;;;;;22.38;44.04;99995.66;5132252;27;20265;-75
2022/04/26 09:53:47;;;;;;;0.90;0.90;;;;;;;22.50;43.67;99987.34;5132105;27;20249;-77
2022/04/26 09:56:15;;;;;;;1.38;1.15;;;;;;;22.58;44.28;99995.88;5132046;27;20196;-77
2022/04/26 09:58:44;;;;;;;1.10;1.10;;;;;;;22.59;44.13;99992.28;5095799;27;20304;-76
2022/04/26 10:01:14;;;;;;;1.90;1.77;;;;;;;22.78;44.86;99993.38;5131973;27;20205;-77
2022/04/26 10:03:46;;;;;;;3.08;1.17;;;;;;;23.06;44.28;99986.16;5131983;27;20763;-77
2022/04/26 10:06:16;;;;;;;1.17;1.15;;;;;;;22.90;44.53;99986.78;5131688;27;20672;-77
2022/04/26 10:08:44;;;;;;;1.48;1.40;;;;;;;23.15;44.72;99983.16;5132166;27;20541;-79
2022/04/26 10:11:10;;;;;;;2.60;1.30;;;;;;;23.21;43.59;99977.66;5095145;27;20272;-75
2022/04/26 10:13:42;;;;;;;1.40;1.40;;;;;;;23.47;43.31;99970.53;5131845;27;20645;-77
2022/04/26 10:16:10;;;;;;;2.60;1.65;;;;;;;23.69;43.21;99987.25;5131572;27;20560;-76
2022/04/26 10:18:43;;;;;;;1.27;1.27;;;;;;;23.94;41.65;99981.81;5131445;27;20684;-78
2022/04/26 10:21:11;;;;;;;2.08;1.45;;;;;;;23.74;42.19;99942.94;5131365;27;20291;-77
2022/04/26 10:24:13;;;;;;;1.77;1.40;;;;;;;23.71;41.97;99988.06;5131606;27;20645;-78
2022/04/26 10:26:40;;;;;;;1.85;1.52;;;;;;;23.30;43.21;99967.63;5131639;27;20220;-76
2022/04/26 10:29:17;;;;;;;2.00;1.70;;;;;;;23.27;44.06;99975.69;5131284;27;20253;-77
2022/04/26 10:31:45;;;;;;;1.60;1.50;;;;;;;23.25;44.23;99959.00;5131508;27;20291;-77
2022/04/26 10:34:34;;;;;;;9.80;1.80;;;;;;;23.41;44.45;99983.94;5131268;27;20277;-76
2022/04/26 10:37:23;;;;;;;8.32;1.92;;;;;;;23.65;44.19;99988.34;5131346;27;20197;-78
2022/04/26 10:40:00;;;;;;;3.47;1.50;;;;;;;23.67;43.81;99975.88;5131028;27;20261;-77
2022/04/26 10:42:28;;;;;;;1.58;1.30;;;;;;;23.93;42.36;99983.63;5131434;27;20192;-77
2022/04/26 10:45:07;;;;;;;1.33;1.33;;;;;;;24.21;42.72;99985.16;5130785;27;20570;-77
2022/04/26 10:47:34;;;;;;;2.33;2.10;;;;;;;24.43;42.48;99973.59;5126618;27;20766;-76
2022/04/26 10:50:02;;;;;;;1.60;1.50;;;;;;;24.12;41.07;99989.88;5110319;28;20221;-76
2022/04/26 10:52:50;;;;;;;2.25;1.30;;;;;;;24.28;40.12;99992.78;5091203;28;20186;-77
2022/04/26 10:55:19;;;;;;;4.10;2.70;;;;;;;24.55;39.54;99998.69;5110523;28;20244;-78
2022/04/26 10:57:49;;;;;;;4.22;1.50;;;;;;;25.15;39.39;100001.28;5110357;28;20204;-77
2022/04/26 11:00:20;;;;;;;2.25;1.70;;;;;;;24.21;40.86;99988.69;5110481;28;20189;-77
2022/04/26 11:02:48;;;;;;;2.45;1.60;;;;;;;23.92;41.37;99987.19;5110636;28;20523;-76
2022/04/26 11:05:16;;;;;;;14.15;1.70;;;;;;;24.02;43.27;99988.53;5074221;28;20628;-75
2022/04/26 11:07:45;;;;;;;3.42;1.30;;;;;;;23.81;41.97;99965.59;5109623;28;20322;-76
2022/04/26 11:10:14;;;;;;;1.50;1.40;;;;;;;24.04;41.39;99986.69;5110197;28;20344;-76
2022/04/26 11:12:41;;;;;;;6.93;1.45;;;;;;;23.94;41.77;99984.47;5110241;28;20288;-75
2022/04/26 11:15:10;;;;;;;5.38;1.60;;;;;;;23.66;42.54;99958.25;5110428;28;20562;-75
2022/04/26 11:17:40;;;;;;;2.22;1.60;;;;;;;23.62;41.62;99951.38;5090994;28;20288;-75
2022/04/26 11:20:12;;;;;;;3.38;1.77;;;;;;;23.73;42.29;99970.31;5073773;28;20201;-75
2022/04/26 11:22:44;;;;;;;1.83;1.10;;;;;;;23.93;41.25;99967.75;5107752;28;20229;-74
2022/04/26 11:28:03;;;;;;;1.02;1.02;;;;;;;23.78;40.96;99962.22;5108573;28;20221;-75
2022/04/26 11:30:32;;;;;;;1.95;1.40;;;;;;;24.13;40.85;99990.78;5041289;28;20740;-75
2022/04/26 11:33:01;;;;;;;3.53;1.40;;;;;;;24.67;39.92;99971.63;5109894;28;20197;-75
2022/04/26 11:35:29;;;;;;;4.25;1.52;;;;;;;25.29;39.51;99992.69;5110269;28;20618;-75
2022/04/26 11:37:58;;;;;;;2.38;1.50;;;;;;;25.26;39.32;99978.69;5109831;28;20250;-75
2022/04/26 11:40:29;;;;;;;1.75;1.65;;;;;;;25.17;39.49;99996.78;5109553;28;20524;-75
2022/04/26 11:42:58;;;;;;;7.32;1.92;;;;;;;25.11;38.90;99991.72;5109898;28;20258;-74
2022/04/26 11:45:28;;;;;;;7.55;1.75;;;;;;;25.41;38.25;99956.72;5109866;28;20211;-75
2022/04/26 11:47:55;;;;;;;3.25;1.65;;;;;;;25.83;37.71;99978.59;5109542;28;20725;-75
2022/04/26 11:50:25;;;;;;;4.35;1.30;;;;;;;25.71;37.20;99981.88;5109595;28;20673;-75
2022/04/26 11:52:53;;;;;;;5.28;1.50;;;;;;;26.28;37.85;99975.47;5090684;28;20664;-75
2022/04/26 11:55:30;;;;;;;2.63;1.40;;;;;;;26.15;36.80;99967.22;5107283;28;20250;-75
2022/04/26 11:58:15;;;;;;;1.35;1.23;;;;;;;26.20;37.77;99971.47;5109621;28;20254;-75
2022/04/26 12:01:00;;;;;;;2.58;1.20;;;;;;;26.22;36.20;99965.13;5109570;28;20203;-76
2022/04/26 12:03:29;;;;;;;2.88;1.20;;;;;;;26.03;36.88;99969.66;5109785;28;20193;-75
2022/04/26 12:05:59;;;;;;;3.30;1.55;;;;;;;25.93;37.30;99955.97;5109412;28;20691;-75
2022/04/26 12:08:27;;;;;;;4.32;1.70;;;;;;;25.54;37.36;99949.97;5090434;28;20727;-75
2022/04/26 12:10:55;;;;;;;1.35;1.30;;;;;;;25.54;37.22;99961.41;5109467;28;20616;-76
2022/04/26 12:13:30;;;;;;;1.77;1.55;;;;;;;25.69;36.79;99958.94;5109891;28;20257;-75
2022/04/26 12:16:13;;;;;;;1.77;1.35;;;;;;;26.15;36.25;99955.72;5110465;28;20593;-75
2022/04/26 12:18:48;;;;;;;1.50;1.30;;;;;;;26.19;35.75;99954.66;5119263;28;20193;-75
2022/04/26 12:21:17;;;;;;;1.08;1.00;;;;;;;26.02;36.14;99947.53;5125206;28;20204;-75
2022/04/26 12:23:44;;;;;;;1.45;1.30;;;;;;;25.51;36.64;99928.84;5121341;28;20197;-75
2022/04/26 12:26:11;;;;;;;3.08;1.30;;;;;;;25.28;37.33;99943.19;5120556;28;20233;-75
2022/04/26 12:28:46;;;;;;;1.55;1.13;;;;;;;25.10;37.76;99913.06;5125690;28;20225;-73
2022/04/26 12:31:21;;;;;;;4.72;1.17;;;;;;;25.26;37.71;99933.56;5116815;28;20193;-75
2022/04/26 12:34:12;;;;;;;1.83;1.30;;;;;;;25.11;37.77;99925.38;5113250;28;20741;-75
2022/04/26 12:36:54;;;;;;;4.40;1.35;;;;;;;24.76;38.27;99927.94;5093610;28;20197;-74
2022/04/26 12:39:22;;;;;;;1.90;1.55;;;;;;;24.79;38.02;99928.66;5113192;28;20204;-74
2022/04/26 12:41:50;;;;;;;3.00;2.17;;;;;;;24.89;38.75;99924.69;5113175;28;20292;-75
2022/04/26 12:44:17;;;;;;;1.85;1.65;;;;;;;24.83;38.29;99922.31;5112921;28;20209;-74
2022/04/26 12:50:28;;;;;;;3.45;1.40;;;;;;;24.61;37.81;99908.28;5112804;28;20679;-75
2022/04/26 12:52:46;;;;;;;3.58;1.50;;;;;;;24.54;38.48;99907.66;5112648;28;20691;-74
2022/04/26 12:55:14;;;;;;;5.07;1.77;;;;;;;24.68;38.77;99897.31;5112684;28;20578;-74
2022/04/26 12:57:51;;;;;;;4.53;1.77;;;;;;;24.80;38.98;99906.50;5112785;28;20262;-77
2022/04/26 13:00:20;;;;;;;2.40;1.60;;;;;;;24.43;38.70;99909.09;5112743;28;20197;-74
2022/04/26 13:02:48;;;;;;;1.40;1.30;;;;;;;24.29;38.84;99856.72;5076910;28;20229;-74
2022/04/26 13:05:15;;;;;;;3.58;1.75;;;;;;;24.67;39.17;99892.09;5112407;28;20193;-76
2022/04/26 13:07:42;;;;;;;1.20;1.10;;;;;;;24.62;39.34;99905.53;5112413;28;20662;-76
2022/04/26 13:10:11;;;;;;;4.70;1.58;;;;;;;24.73;38.82;99896.22;5112717;28;20200;-76
2022/04/26 13:12:38;;;;;;;1.08;1.08;;;;;;;24.76;38.84;99896.13;5112653;28;20471;-76
2022/04/26 13:15:06;;;;;;;1.35;1.10;;;;;;;24.56;39.44;99874.00;5076029;28;20671;-75
2022/04/26 13:17:32;;;;;;;2.05;1.20;;;;;;;24.89;39.44;99887.56;5112365;28;20205;-75
2022/04/26 13:19:59;;;;;;;1.33;1.25;;;;;;;24.74;40.08;99848.44;5112088;28;20286;-75
2022/04/26 13:22:26;;;;;;;1.50;1.30;;;;;;;24.67;39.05;99862.91;5112195;28;20202;-76
2022/04/26 13:24:53;;;;;;;3.45;1.33;;;;;;;24.80;39.31;99882.63;5112017;28;20230;-75
2022/04/26 13:27:21;;;;;;;3.78;1.95;;;;;;;24.62;40.92;99859.59;5112134;28;20209;-73
2022/04/26 13:29:50;;;;;;;1.80;1.65;;;;;;;24.73;40.49;99867.06;5111990;28;20198;-77
2022/04/26 13:32:17;;;;;;;4.50;1.48;;;;;;;24.62;39.00;99878.16;5111532;28;20900;-76
2022/04/26 13:34:44;;;;;;;2.20;1.00;;;;;;;24.65;39.97;99876.22;5111942;28;20206;-77
2022/04/26 13:37:11;;;;;;;4.80;1.42;;;;;;;24.63;40.31;99880.75;5111746;28;20205;-77
2022/04/26 13:39:39;;;;;;;4.00;1.10;;;;;;;24.75;38.11;99863.44;5111818;28;20622;-77
2022/04/26 13:42:07;;;;;;;1.23;1.10;;;;;;;25.09;37.15;99889.25;5111704;28;20610;-77
2022/04/26 13:44:35;;;;;;;2.47;1.35;;;;;;;25.13;35.94;99881.09;5092262;28;20185;-75
2022/04/26 13:47:03;;;;;;;3.70;1.00;;;;;;;24.79;34.95;99880.94;5111824;28;20201;-77
2022/04/26 13:49:30;;;;;;;2.55;1.20;;;;;;;24.88;35.80;99880.53;5111495;28;20226;-77
2022/04/26 13:51:57;;;;;;;1.88;1.27;;;;;;;25.11;36.16;99861.69;5112236;27;20292;-77
2022/04/26 13:54:27;;;;;;;1.08;1.08;;;;;;;25.41;36.38;99858.50;5111788;28;20229;-77
2022/04/26 13:56:54;;;;;;;3.28;1.17;;;;;;;25.44;36.81;99859.22;5111708;28;20220;-77
2022/04/26 13:59:22;;;;;;;3.17;1.00;;;;;;;25.58;36.93;99867.38;5092505;28;20197;-77
2022/04/26 14:01:51;;;;;;;1.48;1.10;;;;;;;25.56;36.09;99842.72;5111434;28;20193;-77
2022/04/26 14:04:17;;;;;;;5.32;1.70;;;;;;;25.46;36.13;99862.66;5127514;27;20200;-78
2022/04/26 14:06:44;;;;;;;3.95;1.02;;;;;;;25.20;35.74;99854.25;5132374;27;20609;-76
2022/04/26 14:09:12;;;;;;;3.33;1.67;;;;;;;24.97;35.66;99834.97;5119650;27;20293;-75
2022/04/26 14:11:39;;;;;;;3.38;1.30;;;;;;;25.09;35.84;99841.50;5131860;27;20203;-76
2022/04/26 14:22:20;;;;;;;1.00;1.00;;;;;;;24.82;36.21;99870.16;5130396;27;20200;-77
2022/04/26 14:24:48;;;;;;;1.23;1.10;;;;;;;24.96;35.67;99866.91;5127152;27;20233;-75
2022/04/26 14:27:15;;;;;;;2.33;1.08;;;;;;;25.01;34.93;99870.19;5129911;27;20692;-75
2022/04/26 14:29:42;;;;;;;3.38;1.40;;;;;;;24.87;34.40;99852.25;5130948;27;20236;-74
2022/04/26 14:32:10;;;;;;;2.42;1.38;;;;;;;25.08;35.19;99872.47;5131156;27;20253;-76
2022/04/26 14:34:38;;;;;;;1.20;1.00;;;;;;;25.20;34.46;99859.56;5108173;27;20196;-76
2022/04/26 14:37:05;;;;;;;1.52;1.10;;;;;;;24.99;34.36;99825.16;5130676;27;20192;-75
2022/04/26 14:39:32;;;;;;;2.10;1.25;;;;;;;25.15;34.04;99857.97;5130949;27;20192;-77
2022/04/26 14:41:59;;;;;;;1.60;1.10;;;;;;;25.29;35.26;99862.63;5131558;27;20675;-77
2022/04/26 14:44:26;;;;;;;1.77;1.00;;;;;;;25.39;33.26;99861.25;5094228;27;20205;-76
2022/04/26 14:46:53;;;;;;;2.53;1.08;;;;;;;25.39;33.49;99865.69;5131232;27;20212;-76
2022/04/26 14:49:21;;;;;;;1.05;0.90;;;;;;;25.27;33.90;99860.97;5130942;27;20887;-78
2022/04/26 14:51:48;;;;;;;0.98;0.98;;;;;;;24.87;34.06;99862.88;5131107;27;20196;-78
2022/04/26 14:54:14;;;;;;;1.20;1.00;;;;;;;24.89;33.81;99861.03;5131236;27;20196;-77
2022/04/26 14:56:41;;;;;;;4.50;1.38;;;;;;;25.22;33.80;99852.41;5131184;27;20205;-77
2022/04/26 14:59:09;;;;;;;5.65;1.30;;;;;;;26.27;33.22;99863.88;5129592;27;20212;-77
2022/04/26 15:01:36;;;;;;;2.67;1.25;;;;;;;27.91;30.71;99843.03;5111820;27;20249;-76
2022/04/26 15:04:03;;;;;;;3.42;1.10;;;;;;;28.51;29.84;99866.94;5133108;27;20211;-77
2022/04/26 15:06:31;;;;;;;4.00;1.42;;;;;;;28.27;30.58;99877.31;5111483;27;20976;-77
2022/04/26 15:11:43;;;;;;;5.70;1.27;;;;;;;27.81;30.30;99857.00;5130999;27;20207;-78
2022/04/26 15:16:54;;;;;;;1.05;0.95;;;;;;;27.03;30.94;99880.13;5130828;27;20200;-77
2022/04/26 15:19:21;;;;;;;1.38;1.10;;;;;;;26.23;32.24;99857.88;5130901;27;20227;-77
2022/04/26 15:21:49;;;;;;;1.17;1.08;;;;;;;26.00;32.96;99866.16;5130620;27;20200;-77
2022/04/26 15:24:17;;;;;;;1.08;1.05;;;;;;;25.97;33.26;99874.31;5130391;27;20200;-77
2022/04/26 15:26:44;;;;;;;1.23;1.10;;;;;;;25.46;33.27;99864.47;5106461;27;20193;-77
2022/04/26 15:29:11;;;;;;;1.95;1.00;;;;;;;25.58;34.00;99874.50;5130362;27;20288;-77
2022/04/26 15:31:38;;;;;;;2.33;1.52;;;;;;;25.73;34.07;99881.69;5130623;27;20197;-77
2022/04/26 15:34:05;;;;;;;1.05;1.00;;;;;;;25.71;33.80;99880.94;5130254;27;20256;-77
2022/04/26 15:36:33;;;;;;;1.30;1.20;;;;;;;25.65;33.85;99878.56;5130265;27;20585;-76
2022/04/26 15:39:01;;;;;;;1.88;1.08;;;;;;;25.62;33.87;99879.56;5130106;27;20193;-77
2022/04/26 15:41:28;;;;;;;2.10;1.50;;;;;;;25.70;33.99;99873.88;5130699;27;20208;-76
2022/04/26 15:43:54;;;;;;;2.05;1.20;;;;;;;25.58;33.75;99882.44;5130494;27;20196;-78